sensor_id;sensor_type;location;lat;lon;timestamp;pressure;altitude;pressure_sealevel;temperature;humidity
37206;BME280;23099;42.636;23.198;2023-02-19T00:01:18;92257.34;;;10.07;44.68
37206;BME280;23099;42.636;23.198;2023-02-19T00:03:49;92263.94;;;10.13;44.44
37206;BME280;23099;42.636;23.198;2023-02-19T00:06:17;92258.44;;;10.21;43.90
37206;BME280;23099;42.636;23.198;2023-02-19T00:08:44;92265.59;;;10.37;43.37
37206;BME280;23099;42.636;23.198;2023-02-19T00:11:12;92259.34;;;10.29;43.35
37206;BME280;23099;42.636;23.198;2023-02-19T00:13:43;92265.09;;;10.31;43.29
37206;BME280;23099;42.636;23.198;2023-02-19T00:16:13;92267.28;;;10.25;43.57
37206;BME280;23099;42.636;23.198;2023-02-19T00:18:41;92259.31;;;10.10;44.19
37206;BME280;23099;42.636;23.198;2023-02-19T00:21:08;92260.84;;;9.91;44.48
37206;BME280;23099;42.636;23.198;2023-02-19T00:23:36;92256.41;;;9.80;44.89
37206;BME280;23099;42.636;23.198;2023-02-19T00:26:03;92259.84;;;9.80;45.06
37206;BME280;23099;42.636;23.198;2023-02-19T00:28:31;92251.16;;;9.68;45.66
37206;BME280;23099;42.636;23.198;2023-02-19T00:31:05;92251.44;;;9.63;45.67
37206;BME280;23099;42.636;23.198;2023-02-19T00:33:32;92261.44;;;9.50;45.92
37206;BME280;23099;42.636;23.198;2023-02-19T00:35:59;92247.16;;;9.42;45.68
37206;BME280;23099;42.636;23.198;2023-02-19T00:38:26;92246.22;;;9.35;46.16
37206;BME280;23099;42.636;23.198;2023-02-19T00:40:53;92240.81;;;9.31;46.27
37206;BME280;23099;42.636;23.198;2023-02-19T00:43:20;92237.28;;;9.27;46.80
37206;BME280;23099;42.636;23.198;2023-02-19T00:45:46;92247.84;;;9.39;45.97
37206;BME280;23099;42.636;23.198;2023-02-19T00:48:15;92256.28;;;9.41;46.46
37206;BME280;23099;42.636;23.198;2023-02-19T00:50:42;92245.03;;;9.32;46.50
37206;BME280;23099;42.636;23.198;2023-02-19T00:53:09;92246.47;;;9.30;46.26
37206;BME280;23099;42.636;23.198;2023-02-19T00:55:35;92235.28;;;9.24;46.41
37206;BME280;23099;42.636;23.198;2023-02-19T00:58:02;92241.25;;;9.17;46.39
37206;BME280;23099;42.636;23.198;2023-02-19T01:00:29;92242.63;;;9.11;47.03
37206;BME280;23099;42.636;23.198;2023-02-19T01:02:57;92249.69;;;9.04;46.89
37206;BME280;23099;42.636;23.198;2023-02-19T01:05:25;92254.25;;;9.03;47.09
37206;BME280;23099;42.636;23.198;2023-02-19T01:07:52;92253.56;;;9.06;46.75
37206;BME280;23099;42.636;23.198;2023-02-19T01:10:18;92251.56;;;9.03;47.03
37206;BME280;23099;42.636;23.198;2023-02-19T01:12:45;92243.56;;;9.03;47.03
37206;BME280;23099;42.636;23.198;2023-02-19T01:15:12;92240.22;;;9.06;47.06
37206;BME280;23099;42.636;23.198;2023-02-19T01:17:38;92236.00;;;9.05;47.08
37206;BME280;23099;42.636;23.198;2023-02-19T01:20:05;92234.91;;;9.06;46.87
37206;BME280;23099;42.636;23.198;2023-02-19T01:22:34;92241.44;;;9.09;47.09
37206;BME280;23099;42.636;23.198;2023-02-19T01:25:00;92244.78;;;9.06;47.38
37206;BME280;23099;42.636;23.198;2023-02-19T01:27:27;92242.13;;;9.06;47.32
37206;BME280;23099;42.636;23.198;2023-02-19T01:29:54;92234.13;;;9.06;47.39
37206;BME280;23099;42.636;23.198;2023-02-19T01:32:20;92252.34;;;9.04;46.99
37206;BME280;23099;42.636;23.198;2023-02-19T01:34:47;92245.03;;;9.01;47.19
37206;BME280;23099;42.636;23.198;2023-02-19T01:37:14;92242.81;;;9.03;47.10
37206;BME280;23099;42.636;23.198;2023-02-19T01:39:42;92248.56;;;9.05;47.09
37206;BME280;23099;42.636;23.198;2023-02-19T01:42:13;92256.22;;;9.06;46.93
37206;BME280;23099;42.636;23.198;2023-02-19T01:47:53;92255.09;;;8.92;47.05
37206;BME280;23099;42.636;23.198;2023-02-19T01:50:22;92266.09;;;8.90;47.63
37206;BME280;23099;42.636;23.198;2023-02-19T01:52:51;92267.66;;;8.91;47.07
37206;BME280;23099;42.636;23.198;2023-02-19T01:55:19;92268.88;;;8.94;46.89
37206;BME280;23099;42.636;23.198;2023-02-19T01:57:48;92279.34;;;9.02;47.06
37206;BME280;23099;42.636;23.198;2023-02-19T02:00:17;92276.69;;;9.02;46.59
37206;BME280;23099;42.636;23.198;2023-02-19T02:02:48;92280.91;;;9.03;47.18
37206;BME280;23099;42.636;23.198;2023-02-19T02:05:22;92273.94;;;8.99;46.49
37206;BME280;23099;42.636;23.198;2023-02-19T02:07:50;92273.75;;;8.92;47.13
37206;BME280;23099;42.636;23.198;2023-02-19T02:10:36;92274.50;;;8.76;48.45
37206;BME280;23099;42.636;23.198;2023-02-19T02:13:02;92268.28;;;8.57;48.43
37206;BME280;23099;42.636;23.198;2023-02-19T02:15:35;92268.13;;;8.37;49.34
37206;BME280;23099;42.636;23.198;2023-02-19T02:18:10;92283.69;;;8.23;48.97
37206;BME280;23099;42.636;23.198;2023-02-19T02:20:55;92286.94;;;8.16;50.47
37206;BME280;23099;42.636;23.198;2023-02-19T02:23:35;92278.75;;;8.09;49.83
37206;BME280;23099;42.636;23.198;2023-02-19T02:26:24;92284.31;;;8.04;50.00
37206;BME280;23099;42.636;23.198;2023-02-19T02:29:13;92284.25;;;7.89;51.04
37206;BME280;23099;42.636;23.198;2023-02-19T02:31:52;92293.16;;;7.68;51.50
37206;BME280;23099;42.636;23.198;2023-02-19T02:34:25;92294.50;;;7.50;52.84
37206;BME280;23099;42.636;23.198;2023-02-19T02:36:54;92285.63;;;7.46;52.48
37206;BME280;23099;42.636;23.198;2023-02-19T02:39:24;92282.53;;;7.32;52.71
37206;BME280;23099;42.636;23.198;2023-02-19T02:41:55;92299.34;;;7.36;52.86
37206;BME280;23099;42.636;23.198;2023-02-19T02:44:36;92297.84;;;7.35;52.61
37206;BME280;23099;42.636;23.198;2023-02-19T02:47:06;92304.34;;;7.37;52.27
37206;BME280;23099;42.636;23.198;2023-02-19T02:49:53;92303.34;;;7.42;52.20
37206;BME280;23099;42.636;23.198;2023-02-19T02:52:31;92302.03;;;7.48;52.08
37206;BME280;23099;42.636;23.198;2023-02-19T02:55:16;92294.59;;;7.41;52.61
37206;BME280;23099;42.636;23.198;2023-02-19T02:57:43;92295.25;;;7.38;52.46
37206;BME280;23099;42.636;23.198;2023-02-19T03:00:11;92300.25;;;7.40;52.66
37206;BME280;23099;42.636;23.198;2023-02-19T03:02:39;92300.13;;;7.36;53.02
37206;BME280;23099;42.636;23.198;2023-02-19T03:05:12;92304.59;;;7.32;53.53
37206;BME280;23099;42.636;23.198;2023-02-19T03:08:04;92303.25;;;7.26;52.62
37206;BME280;23099;42.636;23.198;2023-02-19T03:10:35;92309.00;;;7.16;53.17
37206;BME280;23099;42.636;23.198;2023-02-19T03:13:05;92313.34;;;7.21;54.12
37206;BME280;23099;42.636;23.198;2023-02-19T03:15:55;92321.28;;;7.08;54.46
37206;BME280;23099;42.636;23.198;2023-02-19T03:18:47;92318.69;;;6.43;57.03
37206;BME280;23099;42.636;23.198;2023-02-19T03:21:34;92327.75;;;6.42;57.90
37206;BME280;23099;42.636;23.198;2023-02-19T03:24:03;92332.03;;;6.34;60.25
37206;BME280;23099;42.636;23.198;2023-02-19T03:26:48;92333.13;;;6.12;60.85
37206;BME280;23099;42.636;23.198;2023-02-19T03:29:28;92332.44;;;6.03;61.96
37206;BME280;23099;42.636;23.198;2023-02-19T03:31:57;92345.44;;;5.96;62.26
37206;BME280;23099;42.636;23.198;2023-02-19T03:34:30;92345.72;;;5.74;62.68
37206;BME280;23099;42.636;23.198;2023-02-19T03:37:03;92349.31;;;5.69;63.26
37206;BME280;23099;42.636;23.198;2023-02-19T03:39:32;92352.28;;;5.38;65.23
37206;BME280;23099;42.636;23.198;2023-02-19T03:42:17;92354.91;;;5.47;65.04
37206;BME280;23099;42.636;23.198;2023-02-19T03:44:49;92366.78;;;5.41;66.06
37206;BME280;23099;42.636;23.198;2023-02-19T03:47:23;92355.47;;;5.23;66.01
37206;BME280;23099;42.636;23.198;2023-02-19T03:49:57;92362.06;;;5.17;66.60
37206;BME280;23099;42.636;23.198;2023-02-19T03:52:33;92354.31;;;5.03;67.24
37206;BME280;23099;42.636;23.198;2023-02-19T03:55:09;92362.09;;;5.00;67.95
37206;BME280;23099;42.636;23.198;2023-02-19T03:57:44;92355.91;;;4.87;68.96
37206;BME280;23099;42.636;23.198;2023-02-19T04:00:16;92357.19;;;4.63;69.62
37206;BME280;23099;42.636;23.198;2023-02-19T04:02:49;92353.75;;;4.80;69.70
37206;BME280;23099;42.636;23.198;2023-02-19T04:05:21;92357.16;;;4.89;69.11
37206;BME280;23099;42.636;23.198;2023-02-19T04:07:54;92364.03;;;4.82;69.23
37206;BME280;23099;42.636;23.198;2023-02-19T04:10:23;92357.97;;;4.73;70.54
37206;BME280;23099;42.636;23.198;2023-02-19T04:12:54;92358.44;;;4.66;71.26
37206;BME280;23099;42.636;23.198;2023-02-19T04:15:26;92362.97;;;4.66;70.68
37206;BME280;23099;42.636;23.198;2023-02-19T04:17:58;92366.41;;;4.49;71.18
37206;BME280;23099;42.636;23.198;2023-02-19T04:20:29;92362.97;;;4.48;71.42
37206;BME280;23099;42.636;23.198;2023-02-19T04:22:57;92363.75;;;4.57;70.82
37206;BME280;23099;42.636;23.198;2023-02-19T04:25:25;92367.19;;;4.49;70.85
37206;BME280;23099;42.636;23.198;2023-02-19T04:27:53;92360.38;;;4.31;71.93
37206;BME280;23099;42.636;23.198;2023-02-19T04:30:20;92374.38;;;4.32;71.96
37206;BME280;23099;42.636;23.198;2023-02-19T04:32:46;92374.06;;;4.42;72.22
37206;BME280;23099;42.636;23.198;2023-02-19T04:35:13;92378.72;;;4.45;71.95
37206;BME280;23099;42.636;23.198;2023-02-19T04:37:41;92363.31;;;4.30;71.44
37206;BME280;23099;42.636;23.198;2023-02-19T04:40:09;92370.13;;;4.48;72.02
37206;BME280;23099;42.636;23.198;2023-02-19T04:42:35;92377.34;;;4.30;71.39
37206;BME280;23099;42.636;23.198;2023-02-19T04:45:03;92375.44;;;3.96;73.78
37206;BME280;23099;42.636;23.198;2023-02-19T04:47:30;92378.88;;;4.14;73.77
37206;BME280;23099;42.636;23.198;2023-02-19T04:49:57;92388.22;;;4.11;73.79
37206;BME280;23099;42.636;23.198;2023-02-19T04:52:24;92389.78;;;4.04;74.18
37206;BME280;23099;42.636;23.198;2023-02-19T04:54:52;92384.50;;;4.04;74.88
37206;BME280;23099;42.636;23.198;2023-02-19T04:57:19;92396.13;;;3.94;74.79
37206;BME280;23099;42.636;23.198;2023-02-19T04:59:46;92396.09;;;3.77;75.59
37206;BME280;23099;42.636;23.198;2023-02-19T05:02:12;92390.38;;;3.83;76.02
37206;BME280;23099;42.636;23.198;2023-02-19T05:04:39;92397.19;;;3.76;76.05
37206;BME280;23099;42.636;23.198;2023-02-19T05:07:06;92388.88;;;3.43;76.20
37206;BME280;23099;42.636;23.198;2023-02-19T05:09:33;92388.41;;;3.49;77.11
37206;BME280;23099;42.636;23.198;2023-02-19T05:12:01;92393.09;;;3.61;77.08
37206;BME280;23099;42.636;23.198;2023-02-19T05:14:28;92406.19;;;3.66;76.56
37206;BME280;23099;42.636;23.198;2023-02-19T05:16:54;92412.06;;;3.54;77.49
37206;BME280;23099;42.636;23.198;2023-02-19T05:19:21;92403.53;;;3.66;77.55
37206;BME280;23099;42.636;23.198;2023-02-19T05:21:48;92396.41;;;3.75;77.27
37206;BME280;23099;42.636;23.198;2023-02-19T05:24:14;92396.44;;;3.92;77.24
37206;BME280;23099;42.636;23.198;2023-02-19T05:26:41;92403.28;;;3.85;76.53
37206;BME280;23099;42.636;23.198;2023-02-19T05:29:09;92399.34;;;3.65;76.94
37206;BME280;23099;42.636;23.198;2023-02-19T05:31:36;92404.78;;;3.69;76.50
37206;BME280;23099;42.636;23.198;2023-02-19T05:34:02;92408.25;;;3.86;76.44
37206;BME280;23099;42.636;23.198;2023-02-19T05:36:29;92416.19;;;3.95;76.04
37206;BME280;23099;42.636;23.198;2023-02-19T05:38:57;92411.38;;;3.88;75.62
37206;BME280;23099;42.636;23.198;2023-02-19T05:41:25;92412.78;;;3.95;76.05
37206;BME280;23099;42.636;23.198;2023-02-19T05:43:52;92415.59;;;3.98;75.48
37206;BME280;23099;42.636;23.198;2023-02-19T05:46:22;92411.50;;;3.83;75.74
37206;BME280;23099;42.636;23.198;2023-02-19T05:48:51;92406.53;;;3.90;76.21
37206;BME280;23099;42.636;23.198;2023-02-19T05:51:20;92406.88;;;3.89;76.03
37206;BME280;23099;42.636;23.198;2023-02-19T05:53:47;92412.31;;;4.01;76.42
37206;BME280;23099;42.636;23.198;2023-02-19T05:56:29;92418.69;;;4.09;76.54
37206;BME280;23099;42.636;23.198;2023-02-19T05:58:56;92426.47;;;4.05;75.64
37206;BME280;23099;42.636;23.198;2023-02-19T06:01:26;92426.16;;;3.89;77.01
37206;BME280;23099;42.636;23.198;2023-02-19T06:03:54;92425.25;;;4.03;77.77
37206;BME280;23099;42.636;23.198;2023-02-19T06:06:20;92430.69;;;4.15;77.18
37206;BME280;23099;42.636;23.198;2023-02-19T06:08:48;92438.59;;;4.06;76.71
37206;BME280;23099;42.636;23.198;2023-02-19T06:11:15;92438.78;;;4.01;76.64
37206;BME280;23099;42.636;23.198;2023-02-19T06:13:42;92432.84;;;4.04;77.20
37206;BME280;23099;42.636;23.198;2023-02-19T06:16:10;92435.53;;;4.13;77.14
37206;BME280;23099;42.636;23.198;2023-02-19T06:18:39;92429.91;;;4.23;76.87
37206;BME280;23099;42.636;23.198;2023-02-19T06:21:08;92431.94;;;4.26;76.10
37206;BME280;23099;42.636;23.198;2023-02-19T06:23:35;92433.34;;;4.23;75.93
37206;BME280;23099;42.636;23.198;2023-02-19T06:26:10;92440.81;;;4.21;76.44
37206;BME280;23099;42.636;23.198;2023-02-19T06:28:37;92442.53;;;4.35;76.84
37206;BME280;23099;42.636;23.198;2023-02-19T06:31:04;92444.59;;;4.46;76.56
37206;BME280;23099;42.636;23.198;2023-02-19T06:33:32;92438.66;;;4.49;76.63
37206;BME280;23099;42.636;23.198;2023-02-19T06:36:02;92437.25;;;4.35;76.93
37206;BME280;23099;42.636;23.198;2023-02-19T06:38:29;92431.47;;;4.50;77.27
37206;BME280;23099;42.636;23.198;2023-02-19T06:40:59;92434.94;;;4.59;76.57
37206;BME280;23099;42.636;23.198;2023-02-19T06:43:26;92424.66;;;4.57;76.50
37206;BME280;23099;42.636;23.198;2023-02-19T06:45:53;92421.34;;;4.69;76.63
37206;BME280;23099;42.636;23.198;2023-02-19T06:48:20;92428.66;;;4.81;76.56
37206;BME280;23099;42.636;23.198;2023-02-19T06:50:46;92433.81;;;4.86;76.14
37206;BME280;23099;42.636;23.198;2023-02-19T06:53:14;92425.38;;;4.92;76.09
37206;BME280;23099;42.636;23.198;2023-02-19T06:55:41;92427.09;;;4.88;77.07
37206;BME280;23099;42.636;23.198;2023-02-19T06:58:08;92430.94;;;5.08;77.61
37206;BME280;23099;42.636;23.198;2023-02-19T07:00:34;92430.16;;;5.16;77.51
37206;BME280;23099;42.636;23.198;2023-02-19T07:03:01;92431.41;;;5.19;76.43
37206;BME280;23099;42.636;23.198;2023-02-19T07:05:28;92427.63;;;5.20;76.18
37206;BME280;23099;42.636;23.198;2023-02-19T07:07:54;92436.00;;;5.39;75.33
37206;BME280;23099;42.636;23.198;2023-02-19T07:10:22;92429.09;;;5.55;74.50
37206;BME280;23099;42.636;23.198;2023-02-19T07:12:49;92436.78;;;5.78;73.42
37206;BME280;23099;42.636;23.198;2023-02-19T07:15:16;92437.81;;;5.94;71.48
37206;BME280;23099;42.636;23.198;2023-02-19T07:17:42;92431.00;;;6.14;71.04
37206;BME280;23099;42.636;23.198;2023-02-19T07:20:09;92434.34;;;6.31;68.05
37206;BME280;23099;42.636;23.198;2023-02-19T07:22:36;92439.97;;;6.51;68.68
37206;BME280;23099;42.636;23.198;2023-02-19T07:25:03;92429.06;;;6.64;67.41
37206;BME280;23099;42.636;23.198;2023-02-19T07:27:31;92424.53;;;6.86;66.26
37206;BME280;23099;42.636;23.198;2023-02-19T07:29:58;92429.13;;;7.09;66.04
37206;BME280;23099;42.636;23.198;2023-02-19T07:32:25;92419.78;;;7.36;65.69
37206;BME280;23099;42.636;23.198;2023-02-19T07:34:51;92414.75;;;7.68;63.35
37206;BME280;23099;42.636;23.198;2023-02-19T07:37:18;92410.88;;;8.02;61.29
37206;BME280;23099;42.636;23.198;2023-02-19T07:39:45;92416.28;;;8.30;58.87
37206;BME280;23099;42.636;23.198;2023-02-19T07:42:12;92418.09;;;8.66;57.09
37206;BME280;23099;42.636;23.198;2023-02-19T07:44:40;92414.69;;;8.93;57.56
37206;BME280;23099;42.636;23.198;2023-02-19T07:47:06;92426.19;;;9.25;53.60
37206;BME280;23099;42.636;23.198;2023-02-19T07:49:33;92418.69;;;9.58;53.09
37206;BME280;23099;42.636;23.198;2023-02-19T07:52:00;92410.94;;;9.85;51.33
37206;BME280;23099;42.636;23.198;2023-02-19T07:54:27;92422.63;;;10.12;51.02
37206;BME280;23099;42.636;23.198;2023-02-19T07:56:53;92406.50;;;10.40;49.97
37206;BME280;23099;42.636;23.198;2023-02-19T07:59:20;92406.69;;;10.66;49.23
37206;BME280;23099;42.636;23.198;2023-02-19T08:01:48;92410.97;;;10.71;48.82
37206;BME280;23099;42.636;23.198;2023-02-19T08:04:32;92397.34;;;10.95;47.34
37206;BME280;23099;42.636;23.198;2023-02-19T08:07:00;92394.72;;;11.18;46.32
37206;BME280;23099;42.636;23.198;2023-02-19T08:09:26;92394.75;;;11.41;46.64
37206;BME280;23099;42.636;23.198;2023-02-19T08:11:53;92398.88;;;11.57;46.87
37206;BME280;23099;42.636;23.198;2023-02-19T08:14:37;92404.47;;;11.72;44.64
37206;BME280;23099;42.636;23.198;2023-02-19T08:17:05;92400.34;;;11.97;45.06
37206;BME280;23099;42.636;23.198;2023-02-19T08:19:31;92397.69;;;12.23;44.24
37206;BME280;23099;42.636;23.198;2023-02-19T08:21:58;92406.16;;;12.52;42.80
37206;BME280;23099;42.636;23.198;2023-02-19T08:24:25;92409.09;;;12.73;43.04
37206;BME280;23099;42.636;23.198;2023-02-19T08:26:51;92407.44;;;12.91;42.30
37206;BME280;23099;42.636;23.198;2023-02-19T08:29:18;92398.06;;;12.78;42.18
37206;BME280;23099;42.636;23.198;2023-02-19T08:31:45;92404.84;;;12.68;41.40
37206;BME280;23099;42.636;23.198;2023-02-19T08:34:13;92407.72;;;12.56;42.04
37206;BME280;23099;42.636;23.198;2023-02-19T08:36:39;92399.16;;;12.73;42.22
37206;BME280;23099;42.636;23.198;2023-02-19T08:39:06;92396.06;;;12.71;41.54
37206;BME280;23099;42.636;23.198;2023-02-19T08:41:33;92399.97;;;12.78;41.50
37206;BME280;23099;42.636;23.198;2023-02-19T08:44:00;92399.47;;;12.68;42.26
37206;BME280;23099;42.636;23.198;2023-02-19T08:46:26;92397.75;;;12.83;42.10
37206;BME280;23099;42.636;23.198;2023-02-19T08:48:53;92392.00;;;13.15;41.05
37206;BME280;23099;42.636;23.198;2023-02-19T08:51:21;92397.03;;;13.16;40.85
37206;BME280;23099;42.636;23.198;2023-02-19T08:53:48;92394.13;;;12.98;41.33
37206;BME280;23099;42.636;23.198;2023-02-19T08:56:15;92390.91;;;12.89;42.39
37206;BME280;23099;42.636;23.198;2023-02-19T08:58:44;92392.94;;;12.66;44.04
37206;BME280;23099;42.636;23.198;2023-02-19T09:01:12;92379.22;;;12.45;44.01
37206;BME280;23099;42.636;23.198;2023-02-19T09:03:39;92375.09;;;12.51;43.78
37206;BME280;23099;42.636;23.198;2023-02-19T09:06:06;92368.34;;;12.60;43.82
37206;BME280;23099;42.636;23.198;2023-02-19T09:08:34;92371.31;;;12.55;43.84
37206;BME280;23099;42.636;23.198;2023-02-19T09:11:02;92362.00;;;12.46;44.37
37206;BME280;23099;42.636;23.198;2023-02-19T09:13:31;92361.00;;;12.57;44.31
37206;BME280;23099;42.636;23.198;2023-02-19T09:15:59;92358.56;;;12.75;43.57
37206;BME280;23099;42.636;23.198;2023-02-19T09:18:25;92355.81;;;13.01;44.13
37206;BME280;23099;42.636;23.198;2023-02-19T09:20:52;92354.63;;;13.32;43.64
37206;BME280;23099;42.636;23.198;2023-02-19T09:23:19;92359.38;;;13.46;41.43
37206;BME280;23099;42.636;23.198;2023-02-19T09:25:47;92344.13;;;13.57;41.04
37206;BME280;23099;42.636;23.198;2023-02-19T09:28:13;92351.94;;;13.73;40.98
37206;BME280;23099;42.636;23.198;2023-02-19T09:30:41;92349.22;;;13.66;40.34
37206;BME280;23099;42.636;23.198;2023-02-19T09:33:07;92346.53;;;13.66;40.97
37206;BME280;23099;42.636;23.198;2023-02-19T09:35:37;92334.41;;;13.86;40.01
37206;BME280;23099;42.636;23.198;2023-02-19T09:38:04;92340.72;;;14.08;40.33
37206;BME280;23099;42.636;23.198;2023-02-19T09:40:31;92346.13;;;14.11;40.22
37206;BME280;23099;42.636;23.198;2023-02-19T09:42:59;92345.44;;;14.22;39.98
37206;BME280;23099;42.636;23.198;2023-02-19T09:45:26;92330.53;;;14.35;39.94
37206;BME280;23099;42.636;23.198;2023-02-19T09:47:55;92334.50;;;14.52;39.85
37206;BME280;23099;42.636;23.198;2023-02-19T09:50:30;92334.06;;;14.46;39.92
37206;BME280;23099;42.636;23.198;2023-02-19T09:53:00;92321.50;;;14.64;39.33
37206;BME280;23099;42.636;23.198;2023-02-19T09:55:30;92317.25;;;14.63;38.80
37206;BME280;23099;42.636;23.198;2023-02-19T09:58:02;92302.78;;;14.93;38.06
37206;BME280;23099;42.636;23.198;2023-02-19T10:00:33;92296.66;;;15.03;38.70
37206;BME280;23099;42.636;23.198;2023-02-19T10:03:04;92296.31;;;15.11;38.01
37206;BME280;23099;42.636;23.198;2023-02-19T10:05:31;92294.38;;;15.08;37.89
37206;BME280;23099;42.636;23.198;2023-02-19T10:07:59;92273.22;;;15.07;37.77
37206;BME280;23099;42.636;23.198;2023-02-19T10:10:31;92274.00;;;15.11;37.61
37206;BME280;23099;42.636;23.198;2023-02-19T10:13:10;92267.13;;;15.38;38.13
37206;BME280;23099;42.636;23.198;2023-02-19T10:15:43;92264.44;;;15.52;36.58
37206;BME280;23099;42.636;23.198;2023-02-19T10:18:11;92264.47;;;15.63;36.89
37206;BME280;23099;42.636;23.198;2023-02-19T10:20:38;92257.88;;;15.36;36.76
37206;BME280;23099;42.636;23.198;2023-02-19T10:23:06;92257.50;;;15.41;36.75
37206;BME280;23099;42.636;23.198;2023-02-19T10:25:34;92252.88;;;15.34;38.12
37206;BME280;23099;42.636;23.198;2023-02-19T10:28:02;92253.28;;;15.75;37.53
37206;BME280;23099;42.636;23.198;2023-02-19T10:30:31;92252.16;;;15.66;36.29
37206;BME280;23099;42.636;23.198;2023-02-19T10:33:01;92252.53;;;15.82;36.10
37206;BME280;23099;42.636;23.198;2023-02-19T10:35:29;92242.13;;;15.95;36.29
37206;BME280;23099;42.636;23.198;2023-02-19T10:38:00;92239.44;;;15.80;36.67
37206;BME280;23099;42.636;23.198;2023-02-19T10:40:31;92223.66;;;15.75;36.33
37206;BME280;23099;42.636;23.198;2023-02-19T10:43:00;92219.03;;;15.94;36.25
37206;BME280;23099;42.636;23.198;2023-02-19T10:45:34;92209.72;;;16.23;35.45
37206;BME280;23099;42.636;23.198;2023-02-19T10:48:05;92212.69;;;16.50;35.35
37206;BME280;23099;42.636;23.198;2023-02-19T10:50:34;92211.16;;;16.56;34.74
37206;BME280;23099;42.636;23.198;2023-02-19T10:53:03;92198.78;;;16.69;34.30
37206;BME280;23099;42.636;23.198;2023-02-19T10:55:32;92193.66;;;16.89;35.48
37206;BME280;23099;42.636;23.198;2023-02-19T10:58:21;92192.59;;;16.72;34.12
37206;BME280;23099;42.636;23.198;2023-02-19T11:01:08;92188.03;;;16.55;34.88
37206;BME280;23099;42.636;23.198;2023-02-19T11:03:36;92186.16;;;16.41;34.10
37206;BME280;23099;42.636;23.198;2023-02-19T11:06:04;92183.06;;;16.43;35.50
37206;BME280;23099;42.636;23.198;2023-02-19T11:08:44;92175.13;;;16.91;33.73
37206;BME280;23099;42.636;23.198;2023-02-19T11:11:21;92169.34;;;16.89;33.97
37206;BME280;23099;42.636;23.198;2023-02-19T11:13:49;92162.28;;;17.09;33.84
37206;BME280;23099;42.636;23.198;2023-02-19T11:16:17;92154.53;;;17.15;33.87
37206;BME280;23099;42.636;23.198;2023-02-19T11:18:52;92155.97;;;17.30;33.26
37206;BME280;23099;42.636;23.198;2023-02-19T11:21:24;92141.38;;;17.20;32.89
37206;BME280;23099;42.636;23.198;2023-02-19T11:23:53;92147.88;;;17.30;33.96
37206;BME280;23099;42.636;23.198;2023-02-19T11:26:22;92140.06;;;17.39;32.50
37206;BME280;23099;42.636;23.198;2023-02-19T11:28:55;92135.13;;;17.75;32.12
37206;BME280;23099;42.636;23.198;2023-02-19T11:31:26;92136.19;;;17.40;32.51
37206;BME280;23099;42.636;23.198;2023-02-19T11:33:55;92134.00;;;17.73;32.09
37206;BME280;23099;42.636;23.198;2023-02-19T11:36:30;92123.31;;;17.99;30.80
37206;BME280;23099;42.636;23.198;2023-02-19T11:39:13;92126.97;;;18.16;30.32
37206;BME280;23099;42.636;23.198;2023-02-19T11:41:52;92124.06;;;18.00;30.32
37206;BME280;23099;42.636;23.198;2023-02-19T11:44:30;92113.47;;;17.79;30.28
37206;BME280;23099;42.636;23.198;2023-02-19T11:50:07;92109.41;;;18.31;31.27
37206;BME280;23099;42.636;23.198;2023-02-19T11:52:42;92105.00;;;18.45;30.50
37206;BME280;23099;42.636;23.198;2023-02-19T11:55:30;92104.22;;;18.14;30.09
37206;BME280;23099;42.636;23.198;2023-02-19T11:58:07;92101.84;;;17.82;30.69
37206;BME280;23099;42.636;23.198;2023-02-19T12:00:44;92097.72;;;18.04;30.65
37206;BME280;23099;42.636;23.198;2023-02-19T12:03:33;92095.44;;;18.33;29.73
37206;BME280;23099;42.636;23.198;2023-02-19T12:06:16;92095.50;;;18.29;29.10
37206;BME280;23099;42.636;23.198;2023-02-19T12:09:02;92092.53;;;18.51;30.16
37206;BME280;23099;42.636;23.198;2023-02-19T12:11:48;92086.66;;;18.56;29.03
37206;BME280;23099;42.636;23.198;2023-02-19T12:14:40;92078.00;;;18.37;29.54
37206;BME280;23099;42.636;23.198;2023-02-19T12:17:29;92084.69;;;18.29;30.21
37206;BME280;23099;42.636;23.198;2023-02-19T12:20:09;92066.38;;;18.41;29.44
37206;BME280;23099;42.636;23.198;2023-02-19T12:22:42;92072.28;;;18.32;29.13
37206;BME280;23099;42.636;23.198;2023-02-19T12:25:23;92067.28;;;18.30;29.73
37206;BME280;23099;42.636;23.198;2023-02-19T12:28:09;92058.44;;;18.26;29.16
37206;BME280;23099;42.636;23.198;2023-02-19T12:31:10;92045.66;;;18.30;29.32
37206;BME280;23099;42.636;23.198;2023-02-19T12:36:42;92029.09;;;18.52;29.27
37206;BME280;23099;42.636;23.198;2023-02-19T12:39:20;92022.50;;;18.53;29.53
37206;BME280;23099;42.636;23.198;2023-02-19T12:41:59;92022.00;;;18.34;29.70
37206;BME280;23099;42.636;23.198;2023-02-19T12:44:35;92024.06;;;18.54;29.32
37206;BME280;23099;42.636;23.198;2023-02-19T12:47:04;92017.28;;;18.69;29.82
37206;BME280;23099;42.636;23.198;2023-02-19T12:49:35;91997.50;;;18.72;29.09
37206;BME280;23099;42.636;23.198;2023-02-19T12:52:06;92007.16;;;18.73;28.95
37206;BME280;23099;42.636;23.198;2023-02-19T12:54:39;92003.56;;;18.80;29.26
37206;BME280;23099;42.636;23.198;2023-02-19T12:57:11;91993.47;;;18.57;28.68
37206;BME280;23099;42.636;23.198;2023-02-19T12:59:42;91994.47;;;18.40;29.04
37206;BME280;23099;42.636;23.198;2023-02-19T13:02:14;92000.38;;;18.04;28.88
37206;BME280;23099;42.636;23.198;2023-02-19T13:04:47;91981.97;;;17.92;29.44
37206;BME280;23099;42.636;23.198;2023-02-19T13:07:20;91981.28;;;17.88;29.86
37206;BME280;23099;42.636;23.198;2023-02-19T13:09:52;91990.06;;;17.95;30.67
37206;BME280;23099;42.636;23.198;2023-02-19T13:12:23;91969.81;;;18.07;30.13
37206;BME280;23099;42.636;23.198;2023-02-19T13:14:55;91974.44;;;18.07;29.61
37206;BME280;23099;42.636;23.198;2023-02-19T13:17:26;91974.06;;;18.08;29.97
37206;BME280;23099;42.636;23.198;2023-02-19T13:19:57;91964.34;;;17.84;30.39
37206;BME280;23099;42.636;23.198;2023-02-19T13:22:34;91963.59;;;17.80;29.83